Oberpfaffenhofen, Germania

11:43 AM CEST die 04o August, anno 2015 (GMT +0200)
Oberpfaffenhofen | | Change Station
CLOSE
Current Station
Airport
Location: Oberpfaffenhofen,
Elevation: 1969 ft
Nearby Weather Stations

Elev 1969 ft 48.08 °N, 11.28 °E | Updated 23 minutes ago

Clear
Serena
82 °F
Feels Like 82 °F
N
4
Ventus Variabilis Ventus from Variabilis

Hodie
High -- | Low -- °F
--% Chance of Precip.
Yesterday
High -- | Low -- °F
Precip. -- in
5:54 AM 8:47 PM
Waning Gibbous, 79% visible
Pressio 30.01 in
Visibilitas -9999.0 milia passuum
Clouds
Index Caloris 82 °F
Frigus in quo Ros apparet 55 °F
Umor 39%
Rainfall 0.00 in
Snow Depth Not available.
UV Not available.
Pollen Not available.
Air Quality Not available.
Flu Activity Not available.
METAR EDMO 040920Z VRB03KT CAVOK 28/13 Q1016 RMK ATIS ON MAINT

More Conditions Fewer Conditions

Pressio 30.01 in
Visibilitas -9999.0 milia passuum
Clouds
Index Caloris 82 °F
Frigus in quo Ros apparet 55 °F
Umor 39%
Rainfall 0.00 in
Snow Depth Not available.
UV Not available.
Pollen Not available.
Air Quality Not available.
Flu Activity Not available.
METAR EDMO 040920Z VRB03KT CAVOK 28/13 Q1016 RMK ATIS ON MAINT

More Conditions Fewer Conditions

10-Day Weather Forecast

×

Almanac

Astronomy

Aug. 04, 2015 Rise Set
Actual Time
Civil Twilight
Nautical Twilight
Astronomical Twilight
Moon
Length Of Visible Light
Length of Day
Tomorrow will be .
, % of the Moon is Illuminated

Today's Extremes

Country Highs Country Lows

Community

WunderPhotos

Upload Photos

1,843,880 photos uploaded!

WunderBlogs® & News

Nearby

Air Quality

  Air Quality AQ Index Pollutant
Not available.

Snow Depth

Station Depth Elevation

Earthquake Activity

City Distance Mag. Time & Date
Minimum magnitude displayed is 2.5.

Coastal Water Temperatures

Locus Calor

Stations

Nearby Weather Stations

Station Location Temp Frigus Venti Frigus in quo Ros apparet Umor Ventus Precip. Elev Renovata Type